createdAt,value
2023-01-02T00:00:02.466Z,1.78
2023-01-02T00:02:35.914Z,1.74
2023-01-02T00:05:10.240Z,1.74
2023-01-02T00:07:43.462Z,1.57
2023-01-02T00:10:17.027Z,1.55
2023-01-02T00:12:51.579Z,1.51
2023-01-02T00:15:26.674Z,1.56
2023-01-02T00:18:00.333Z,1.56
2023-01-02T00:20:34.529Z,1.52
2023-01-02T00:23:07.627Z,1.48
2023-01-02T00:25:41.013Z,1.52
2023-01-02T00:28:14.916Z,1.49
2023-01-02T00:30:49.788Z,1.42
2023-01-02T00:33:23.882Z,1.31
2023-01-02T00:35:57.104Z,1.31
2023-01-02T00:38:30.323Z,1.27
2023-01-02T00:41:03.597Z,1.36
2023-01-02T00:43:37.342Z,1.37
2023-01-02T00:46:12.525Z,1.39
2023-01-02T00:48:46.089Z,1.44
2023-01-02T00:51:19.335Z,1.30
2023-01-02T00:53:52.617Z,1.44
2023-01-02T00:56:25.855Z,1.38
2023-01-02T00:58:59.884Z,1.41
2023-01-02T01:01:34.860Z,1.27
2023-01-02T01:04:08.150Z,1.27
2023-01-02T01:06:41.442Z,1.23
2023-01-02T01:09:14.734Z,1.32
2023-01-02T01:11:48.326Z,1.34
2023-01-02T01:14:23.709Z,1.42
2023-01-02T01:16:58.950Z,1.43
2023-01-02T01:19:32.302Z,1.29
2023-01-02T01:22:05.503Z,1.42
2023-01-02T01:24:38.744Z,1.45
2023-01-02T01:27:11.970Z,1.21
2023-01-02T01:29:45.331Z,1.27
2023-01-02T01:32:20.552Z,1.37
2023-01-02T01:34:53.866Z,1.29
2023-01-02T01:37:27.176Z,1.21
2023-01-02T01:40:01.061Z,0.73
2023-01-02T01:42:35.045Z,1.05
2023-01-02T01:45:15.503Z,1.12
2023-01-02T01:47:54.304Z,1.16
2023-01-02T01:50:32.586Z,1.00
2023-01-02T01:53:11.335Z,1.20
2023-01-02T01:55:48.148Z,1.21
2023-01-02T01:58:25.937Z,1.19
2023-01-02T02:00:59.986Z,1.29
2023-01-02T02:03:37.086Z,1.19
2023-01-02T02:06:11.468Z,1.04
2023-01-02T02:08:49.148Z,1.23
2023-01-02T02:11:23.772Z,1.08
2023-01-02T02:14:00.429Z,1.13
2023-01-02T02:16:43.016Z,1.25
2023-01-02T02:19:47.769Z,1.04
2023-01-02T02:22:32.917Z,1.23
2023-01-02T02:25:34.693Z,1.28
2023-01-02T02:28:39.055Z,1.17
2023-01-02T02:31:21.611Z,1.20
2023-01-02T02:34:00.125Z,1.15
2023-01-02T02:36:39.844Z,1.15
2023-01-02T02:39:22.121Z,1.25
2023-01-02T02:41:59.705Z,1.21
2023-01-02T02:44:41.806Z,1.04
2023-01-02T02:47:23.401Z,1.14
2023-01-02T02:50:03.763Z,0.84
2023-01-02T02:52:43.324Z,1.01
2023-01-02T02:55:22.258Z,1.19
2023-01-02T02:57:57.991Z,1.28
2023-01-02T03:00:31.330Z,1.21
2023-01-02T03:03:17.392Z,1.29
2023-01-02T03:06:07.151Z,1.06
2023-01-02T03:08:46.044Z,0.90
2023-01-02T03:11:19.825Z,0.89
2023-01-02T03:14:03.302Z,0.97
2023-01-02T03:16:40.895Z,1.17
2023-01-02T03:19:24.339Z,1.09
2023-01-02T03:22:02.444Z,1.03
2023-01-02T03:24:38.024Z,1.16
2023-01-02T03:27:15.996Z,1.08
2023-01-02T03:29:54.872Z,0.96
2023-01-02T03:32:32.115Z,1.07
2023-01-02T03:35:14.944Z,1.00
2023-01-02T03:37:55.435Z,1.02
2023-01-02T03:40:35.393Z,1.00
2023-01-02T03:43:12.513Z,1.04
2023-01-02T03:45:52.314Z,0.97
2023-01-02T03:48:32.664Z,0.97
2023-01-02T03:51:08.142Z,0.81
2023-01-02T03:53:41.949Z,0.84
2023-01-02T03:56:24.458Z,0.79
2023-01-02T03:59:02.673Z,0.77
2023-01-02T04:01:41.768Z,0.85
2023-01-02T04:04:19.911Z,0.78
2023-01-02T04:06:59.655Z,0.66
2023-01-02T04:09:35.245Z,0.72
2023-01-02T04:12:14.898Z,0.63
2023-01-02T04:14:52.569Z,0.49
2023-01-02T04:17:28.237Z,0.55
2023-01-02T04:20:06.633Z,0.46
2023-01-02T04:22:49.268Z,0.60
2023-01-02T04:25:27.354Z,0.58
2023-01-02T04:28:03.986Z,0.61
2023-01-02T04:30:42.638Z,0.43
2023-01-02T04:33:18.991Z,0.58
2023-01-02T04:35:52.655Z,0.56
2023-01-02T04:38:27.010Z,0.45
2023-01-02T04:41:00.785Z,0.55
2023-01-02T04:43:34.258Z,0.49
2023-01-02T04:46:07.647Z,0.37
2023-01-02T04:48:40.976Z,0.44
2023-01-02T04:51:14.922Z,0.45
2023-01-02T04:53:50.083Z,0.44
2023-01-02T04:56:23.414Z,0.65
2023-01-02T04:58:56.669Z,0.53
2023-01-02T05:01:30.025Z,0.44
2023-01-02T05:04:03.395Z,0.58
2023-01-02T05:06:36.981Z,0.55
2023-01-02T05:09:11.983Z,0.55
2023-01-02T05:11:46.075Z,0.49
2023-01-02T05:14:19.688Z,0.68
2023-01-02T05:16:53.295Z,0.50
2023-01-02T05:19:26.593Z,0.60
2023-01-02T05:22:17.628Z,0.67
2023-01-02T05:24:52.310Z,0.50
2023-01-02T05:27:25.761Z,0.66
2023-01-02T05:29:59.033Z,0.74
2023-01-02T05:32:32.521Z,0.75
2023-01-02T05:35:06.396Z,0.67
2023-01-02T05:37:39.948Z,0.58
2023-01-02T05:40:14.879Z,0.35
2023-01-02T05:42:48.144Z,0.44
2023-01-02T05:45:21.409Z,0.41
2023-01-02T05:47:54.675Z,0.43
2023-01-02T05:50:28.190Z,0.62
2023-01-02T05:53:01.727Z,0.66
2023-01-02T05:55:37.122Z,0.43
2023-01-02T05:58:10.333Z,0.58
2023-01-02T06:00:43.473Z,0.28
2023-01-02T06:03:16.791Z,0.39
2023-01-02T06:05:50.049Z,0.61
2023-01-02T06:08:23.535Z,0.61
2023-01-02T06:10:58.510Z,0.55
2023-01-02T06:13:33.391Z,0.65
2023-01-02T06:16:08.800Z,0.72
2023-01-02T06:18:42.133Z,0.61
2023-01-02T06:21:17.127Z,0.52
2023-01-02T06:23:55.604Z,0.67
2023-01-02T06:26:34.886Z,0.62
2023-01-02T06:29:08.841Z,0.69
2023-01-02T06:31:44.872Z,0.73
2023-01-02T06:34:22.879Z,0.79
2023-01-02T06:36:56.507Z,0.85
2023-01-02T06:39:29.934Z,0.90
2023-01-02T06:42:04.580Z,0.90
2023-01-02T06:44:37.691Z,0.98
2023-01-02T06:47:10.963Z,0.99
2023-01-02T06:49:44.531Z,0.97
2023-01-02T06:52:18.138Z,1.03
2023-01-02T06:54:51.840Z,1.06
2023-01-02T06:57:26.478Z,1.07
2023-01-02T06:59:59.766Z,1.20
2023-01-02T07:02:33.184Z,1.26
2023-01-02T07:05:07.306Z,1.35
2023-01-02T07:07:40.974Z,1.42
2023-01-02T07:10:14.318Z,1.49
2023-01-02T07:12:49.927Z,1.53
2023-01-02T07:15:23.634Z,1.56
2023-01-02T07:17:57.213Z,1.64
2023-01-02T07:20:30.473Z,1.55
2023-01-02T07:23:03.659Z,1.69
2023-01-02T07:25:40.899Z,1.82
2023-01-02T07:28:18.890Z,1.84
2023-01-02T07:30:52.541Z,1.85
2023-01-02T07:33:25.660Z,1.96
2023-01-02T07:35:59.693Z,2.02
2023-01-02T07:38:33.496Z,2.07
2023-01-02T07:41:15.508Z,2.18
2023-01-02T07:43:50.909Z,2.26
2023-01-02T07:46:24.432Z,2.39
2023-01-02T07:48:57.640Z,2.15
2023-01-02T07:51:32.294Z,2.65
2023-01-02T07:54:06.015Z,2.76
2023-01-02T07:56:39.406Z,2.78
2023-01-02T07:59:14.100Z,3.03
2023-01-02T08:01:48.041Z,3.13
2023-01-02T08:04:21.853Z,3.26
2023-01-02T08:06:55.223Z,3.34
2023-01-02T08:09:28.636Z,3.45
2023-01-02T08:12:02.944Z,3.60
2023-01-02T08:14:38.474Z,3.75
2023-01-02T08:17:12.143Z,3.81
2023-01-02T08:19:45.476Z,3.94
2023-01-02T08:22:19.010Z,4.10
2023-01-02T08:24:52.498Z,4.22
2023-01-02T08:27:26.226Z,4.34
2023-01-02T08:30:01.090Z,4.45
2023-01-02T08:32:37.110Z,4.50
2023-01-02T08:35:10.996Z,4.63
2023-01-02T08:37:50.084Z,4.73
2023-01-02T08:40:24.003Z,4.85
2023-01-02T08:42:57.391Z,4.95
2023-01-02T08:45:32.309Z,5.10
2023-01-02T08:48:21.535Z,5.18
2023-01-02T08:50:55.200Z,5.33
2023-01-02T08:53:28.521Z,5.40
2023-01-02T08:56:23.009Z,5.49
2023-01-02T08:58:58.312Z,5.57
2023-01-02T09:01:33.877Z,5.63
2023-01-02T09:04:12.536Z,5.74
2023-01-02T09:06:46.833Z,5.88
2023-01-02T09:09:20.298Z,5.97
2023-01-02T09:11:54.452Z,6.14
2023-01-02T09:14:28.222Z,6.20
2023-01-02T09:17:03.306Z,6.22
2023-01-02T09:19:37.114Z,6.03
2023-01-02T09:22:10.643Z,6.47
2023-01-02T09:24:44.080Z,6.56
2023-01-02T09:27:17.680Z,6.55
2023-01-02T09:29:51.075Z,6.58
2023-01-02T09:32:25.646Z,6.61
2023-01-02T09:34:59.703Z,6.70
2023-01-02T09:37:32.891Z,6.75
2023-01-02T09:40:07.102Z,6.83
2023-01-02T09:42:40.602Z,6.97
2023-01-02T09:45:15.620Z,7.06
2023-01-02T09:47:51.948Z,7.13
2023-01-02T09:50:28.030Z,7.19
2023-01-02T09:53:02.038Z,7.22
2023-01-02T09:55:39.449Z,7.30
2023-01-02T09:58:20.658Z,7.34
2023-01-02T10:00:54.340Z,7.42
2023-01-02T10:03:36.293Z,7.50
2023-01-02T10:06:16.519Z,7.54
2023-01-02T10:09:03.223Z,7.72
2023-01-02T10:11:44.553Z,7.80
2023-01-02T10:14:31.439Z,7.90
2023-01-02T10:17:14.000Z,7.82
2023-01-02T10:19:55.018Z,8.05
2023-01-02T10:22:36.656Z,8.15
2023-01-02T10:25:15.897Z,8.12
2023-01-02T10:27:53.189Z,8.22
2023-01-02T10:30:28.927Z,8.25
2023-01-02T10:33:05.558Z,8.27
2023-01-02T10:35:44.364Z,8.35
2023-01-02T10:38:20.885Z,8.43
2023-01-02T10:40:54.555Z,8.48
2023-01-02T10:43:29.490Z,8.59
2023-01-02T10:46:04.682Z,8.64
2023-01-02T10:48:39.825Z,8.87
2023-01-02T10:51:17.352Z,8.85
2023-01-02T10:54:01.817Z,8.60
2023-01-02T10:56:37.341Z,8.69
2023-01-02T10:59:21.971Z,8.76
2023-01-02T11:01:57.332Z,8.80
2023-01-02T11:04:31.986Z,8.62
2023-01-02T11:07:06.676Z,8.92
2023-01-02T11:09:40.378Z,9.00
2023-01-02T11:12:15.324Z,8.83
2023-01-02T11:14:50.132Z,9.08
2023-01-02T11:17:25.962Z,9.03
2023-01-02T11:19:59.229Z,9.10
2023-01-02T11:22:37.404Z,9.37
2023-01-02T11:25:20.240Z,9.31
2023-01-02T11:27:58.686Z,9.18
2023-01-02T11:30:37.551Z,9.23
2023-01-02T11:33:20.821Z,9.41
2023-01-02T11:35:56.498Z,9.56
2023-01-02T11:38:45.670Z,9.27
2023-01-02T11:41:48.520Z,9.39
2023-01-02T11:44:26.472Z,9.53
2023-01-02T11:47:01.463Z,9.50
2023-01-02T11:49:39.383Z,9.40
2023-01-02T11:52:17.510Z,9.39
2023-01-02T11:54:57.381Z,9.40
2023-01-02T11:57:39.638Z,9.47
2023-01-02T12:00:15.871Z,9.42
2023-01-02T12:02:52.084Z,9.32
2023-01-02T12:05:34.054Z,9.36
2023-01-02T12:08:17.558Z,9.29
2023-01-02T12:10:59.388Z,9.46
2023-01-02T12:13:51.232Z,9.48
2023-01-02T12:16:35.009Z,9.50
2023-01-02T12:19:42.425Z,9.34
2023-01-02T12:22:28.566Z,9.34
2023-01-02T12:25:24.694Z,9.52
2023-01-02T12:28:06.460Z,9.45
2023-01-02T12:30:49.731Z,9.77
2023-01-02T12:33:40.192Z,9.85
2023-01-02T12:36:34.162Z,9.65
2023-01-02T12:39:26.599Z,9.57
2023-01-02T12:42:13.319Z,9.38
2023-01-02T12:44:52.151Z,9.21
2023-01-02T12:47:36.241Z,9.51
2023-01-02T12:50:28.942Z,9.44
2023-01-02T12:53:15.201Z,9.48
2023-01-02T12:55:59.406Z,9.57
2023-01-02T12:58:47.965Z,9.63
2023-01-02T13:01:31.393Z,9.69
2023-01-02T13:04:15.265Z,9.64
2023-01-02T13:06:53.413Z,9.57
2023-01-02T13:09:33.498Z,9.50
2023-01-02T13:12:12.082Z,9.40
2023-01-02T13:14:51.607Z,9.21
2023-01-02T13:17:37.846Z,9.30
2023-01-02T13:20:22.805Z,9.15
2023-01-02T13:23:05.852Z,9.11
2023-01-02T13:25:45.955Z,9.00
2023-01-02T13:28:20.200Z,8.95
2023-01-02T13:31:35.307Z,9.04
2023-01-02T13:33:57.488Z,9.09
2023-01-02T13:36:39.376Z,9.03
2023-01-02T13:39:19.845Z,9.01
2023-01-02T13:42:14.653Z,8.89
2023-01-02T13:44:52.255Z,8.86
2023-01-02T13:47:34.898Z,8.82
2023-01-02T13:50:19.712Z,8.86
2023-01-02T13:53:01.110Z,8.87
2023-01-02T13:55:35.822Z,8.84
2023-01-02T13:58:40.541Z,8.77
2023-01-02T14:01:43.694Z,8.80
2023-01-02T14:04:46.969Z,8.77
2023-01-02T14:07:44.997Z,8.68
2023-01-02T14:10:35.488Z,8.67
2023-01-02T14:13:18.944Z,8.66
2023-01-02T14:16:39.724Z,8.56
2023-01-02T14:19:23.155Z,8.49
2023-01-02T14:22:06.882Z,8.44
2023-01-02T14:24:44.333Z,8.36
2023-01-02T14:27:23.836Z,8.32
2023-01-02T14:30:01.029Z,8.18
2023-01-02T14:32:39.306Z,8.15
2023-01-02T14:35:26.167Z,8.08
2023-01-02T14:38:10.883Z,8.08
2023-01-02T14:40:46.812Z,8.12
2023-01-02T14:43:32.351Z,8.07
2023-01-02T14:46:16.364Z,7.97
2023-01-02T14:48:54.435Z,7.97
2023-01-02T14:51:34.057Z,7.96
2023-01-02T14:54:15.668Z,7.83
2023-01-02T14:56:55.621Z,7.70
2023-01-02T14:59:31.567Z,7.66
2023-01-02T15:02:10.254Z,7.67
2023-01-02T15:04:47.196Z,7.44
2023-01-02T15:07:26.738Z,7.55
2023-01-02T15:10:04.156Z,7.64
2023-01-02T15:13:03.140Z,7.65
2023-01-02T15:15:40.981Z,7.62
2023-01-02T15:18:22.725Z,7.64
2023-01-02T15:20:58.429Z,7.64
2023-01-02T15:23:31.656Z,7.61
2023-01-02T15:26:31.363Z,7.54
2023-01-02T15:29:19.929Z,7.54
2023-01-02T15:31:55.215Z,7.48
2023-01-02T15:34:30.864Z,7.44
2023-01-02T15:37:07.100Z,7.34
2023-01-02T15:39:43.805Z,7.37
2023-01-02T15:42:38.523Z,7.20
2023-01-02T15:45:16.331Z,7.09
2023-01-02T15:47:52.582Z,7.10
2023-01-02T15:50:28.244Z,7.05
2023-01-02T15:53:05.182Z,7.05
2023-01-02T15:55:40.391Z,6.99
2023-01-02T15:58:21.871Z,7.01
2023-01-02T16:01:15.387Z,6.92
2023-01-02T16:04:01.588Z,6.89
2023-01-02T16:06:41.553Z,6.83
2023-01-02T16:09:22.628Z,6.76
2023-01-02T16:11:58.750Z,6.69
2023-01-02T16:14:37.644Z,6.64
2023-01-02T16:17:22.816Z,6.59
2023-01-02T16:19:59.970Z,6.52
2023-01-02T16:22:44.028Z,6.50
2023-01-02T16:25:20.043Z,6.45
2023-01-02T16:27:57.304Z,6.44
2023-01-02T16:30:38.135Z,6.38
2023-01-02T16:33:24.232Z,6.32
2023-01-02T16:36:07.409Z,6.18
2023-01-02T16:38:49.416Z,6.27
2023-01-02T16:42:19.641Z,6.26
2023-01-02T16:44:56.263Z,6.21
2023-01-02T16:47:36.296Z,6.16
2023-01-02T16:50:18.306Z,5.89
2023-01-02T16:52:53.288Z,6.05
2023-01-02T16:55:27.163Z,6.07
2023-01-02T16:58:01.378Z,6.05
2023-01-02T17:00:39.848Z,6.04
2023-01-02T17:03:19.710Z,5.98
2023-01-02T17:06:01.239Z,6.01
2023-01-02T17:08:36.391Z,6.00
2023-01-02T17:11:09.941Z,5.98
2023-01-02T17:13:43.841Z,5.89
2023-01-02T17:16:18.450Z,5.87
2023-01-02T17:18:52.096Z,5.78
2023-01-02T17:21:32.573Z,5.84
2023-01-02T17:24:06.693Z,5.79
2023-01-02T17:26:40.369Z,5.77
2023-01-02T17:29:14.053Z,5.72
2023-01-02T17:31:47.727Z,5.71
2023-01-02T17:34:21.290Z,5.54
2023-01-02T17:36:57.104Z,5.59
2023-01-02T17:39:30.590Z,5.54
2023-01-02T17:42:03.919Z,5.56
2023-01-02T17:44:38.895Z,5.47
2023-01-02T17:50:07.203Z,5.47
2023-01-02T17:52:41.712Z,5.36
2023-01-02T17:55:15.367Z,5.31
2023-01-02T17:57:49.080Z,5.34
2023-01-02T18:00:23.800Z,5.21
2023-01-02T18:02:57.545Z,5.16
2023-01-02T18:05:32.007Z,5.22
2023-01-02T18:08:07.147Z,5.05
2023-01-02T18:10:40.964Z,5.18
2023-01-02T18:13:14.580Z,5.17
2023-01-02T18:15:49.042Z,5.14
2023-01-02T18:18:24.806Z,5.13
2023-01-02T18:20:58.621Z,5.05
2023-01-02T18:23:33.444Z,5.05
2023-01-02T18:26:12.070Z,4.99
2023-01-02T18:28:50.947Z,4.97
2023-01-02T18:31:25.560Z,4.88
2023-01-02T18:34:45.757Z,4.91
2023-01-02T18:37:19.361Z,4.74
2023-01-02T18:39:55.570Z,4.59
2023-01-02T18:42:34.667Z,4.65
2023-01-02T18:45:17.034Z,4.56
2023-01-02T18:47:56.844Z,4.57
2023-01-02T18:50:34.264Z,4.50
2023-01-02T18:53:16.868Z,4.50
2023-01-02T18:55:57.313Z,4.58
2023-01-02T18:58:40.949Z,4.25
2023-01-02T19:01:23.824Z,4.54
2023-01-02T19:04:24.461Z,4.53
2023-01-02T19:07:16.860Z,4.10
2023-01-02T19:09:50.361Z,4.50
2023-01-02T19:12:45.871Z,4.46
2023-01-02T19:15:43.861Z,4.47
2023-01-02T19:18:27.401Z,4.44
2023-01-02T19:21:12.051Z,4.36
2023-01-02T19:23:50.163Z,4.28
2023-01-02T19:26:27.833Z,4.11
2023-01-02T19:29:08.676Z,4.20
2023-01-02T19:31:44.851Z,4.13
2023-01-02T19:34:27.908Z,4.00
2023-01-02T19:37:20.210Z,3.96
2023-01-02T19:39:54.872Z,4.03
2023-01-02T19:42:30.967Z,3.96
2023-01-02T19:45:08.681Z,3.92
2023-01-02T19:47:42.171Z,3.93
2023-01-02T19:50:17.500Z,3.94
2023-01-02T19:52:50.877Z,3.95
2023-01-02T19:55:25.277Z,3.82
2023-01-02T19:57:59.451Z,3.91
2023-01-02T20:00:34.499Z,3.83
2023-01-02T20:03:09.308Z,3.88
2023-01-02T20:05:42.663Z,3.83
2023-01-02T20:08:16.103Z,3.54
2023-01-02T20:10:49.651Z,3.68
2023-01-02T20:13:24.037Z,3.69
2023-01-02T20:15:59.790Z,3.66
2023-01-02T20:18:33.276Z,3.70
2023-01-02T20:21:07.095Z,3.52
2023-01-02T20:23:40.365Z,3.57
2023-01-02T20:26:13.482Z,3.59
2023-01-02T20:28:47.105Z,3.50
2023-01-02T20:31:22.118Z,3.41
2023-01-02T20:33:55.855Z,3.42
2023-01-02T20:36:29.617Z,3.33
2023-01-02T20:39:02.897Z,3.41
2023-01-02T20:41:38.594Z,3.28
2023-01-02T20:44:14.208Z,3.32
2023-01-02T20:46:49.182Z,3.17
2023-01-02T20:49:25.037Z,3.21
2023-01-02T20:51:58.484Z,3.26
2023-01-02T20:54:31.875Z,3.16
2023-01-02T20:57:05.411Z,3.23
2023-01-02T20:59:38.887Z,3.09
2023-01-02T21:02:13.958Z,2.99
2023-01-02T21:04:47.505Z,3.00
2023-01-02T21:07:20.762Z,3.01
2023-01-02T21:09:57.517Z,3.12
2023-01-02T21:12:48.744Z,3.10
2023-01-02T21:15:39.836Z,3.01
2023-01-02T21:18:17.347Z,3.01
2023-01-02T21:20:53.123Z,2.80
2023-01-02T21:23:29.114Z,2.91
2023-01-02T21:26:03.059Z,2.79
2023-01-02T21:28:37.120Z,2.84
2023-01-02T21:31:11.400Z,2.88
2023-01-02T21:33:46.490Z,2.82
2023-01-02T21:36:20.016Z,2.91
2023-01-02T21:38:53.395Z,2.43
2023-01-02T21:41:43.671Z,2.71
2023-01-02T21:44:17.098Z,2.78
2023-01-02T21:46:50.502Z,2.65
2023-01-02T21:49:25.146Z,2.82
2023-01-02T21:51:58.443Z,2.74
2023-01-02T21:54:32.155Z,2.68
2023-01-02T21:57:06.035Z,2.71
2023-01-02T21:59:39.406Z,2.62
2023-01-02T22:02:12.593Z,2.56
2023-01-02T22:04:47.500Z,2.61
2023-01-02T22:07:31.807Z,2.59
2023-01-02T22:10:07.703Z,2.56
2023-01-02T22:12:42.092Z,2.43
2023-01-02T22:15:16.038Z,2.43
2023-01-02T22:17:49.586Z,2.37
2023-01-02T22:20:24.407Z,2.31
2023-01-02T22:22:58.004Z,2.32
2023-01-02T22:25:32.304Z,2.43
2023-01-02T22:28:06.056Z,2.50
2023-01-02T22:30:39.290Z,2.47
2023-01-02T22:33:12.637Z,2.32
2023-01-02T22:35:48.392Z,2.36
2023-01-02T22:38:21.652Z,2.37
2023-01-02T22:40:56.037Z,2.28
2023-01-02T22:43:35.638Z,2.16
2023-01-02T22:46:17.706Z,2.25
2023-01-02T22:48:52.151Z,2.14
2023-01-02T22:51:57.793Z,2.17
2023-01-02T22:54:23.879Z,2.09
2023-01-02T22:56:57.390Z,2.00
2023-01-02T22:59:30.741Z,2.09
2023-01-02T23:02:04.063Z,1.97
2023-01-02T23:04:37.397Z,2.01
2023-01-02T23:07:25.134Z,1.99
2023-01-02T23:09:58.967Z,1.97
2023-01-02T23:12:32.506Z,1.97
2023-01-02T23:15:07.377Z,2.01
2023-01-02T23:17:58.380Z,2.00
2023-01-02T23:20:31.738Z,1.97
2023-01-02T23:23:06.538Z,1.90
2023-01-02T23:25:43.110Z,1.86
2023-01-02T23:28:39.279Z,1.85
2023-01-02T23:31:11.675Z,1.82
2023-01-02T23:33:45.014Z,1.87
2023-01-02T23:36:18.519Z,1.70
2023-01-02T23:38:53.609Z,1.62
2023-01-02T23:41:27.509Z,1.92
2023-01-02T23:44:01.848Z,1.98
2023-01-02T23:46:35.447Z,1.69
2023-01-02T23:49:09.310Z,1.91
2023-01-02T23:51:42.883Z,1.97
2023-01-02T23:54:17.863Z,1.92
2023-01-02T23:56:52.163Z,1.90
2023-01-02T23:59:26.262Z,1.52
